INDIA METEOROLOGICAL DEPARTMENT, R.M.C. NEW DELHI
Dated:18 - 12 - 2017
METARS OF ALTERNATE AIRPORTS
Delhi      
VIDP 180400Z 26008KT 1500 R28/1300 R29/P2000 FU NSC 13/05 Q1022 NOSIG=
Amritsar   
VIAR 180430Z 32010KT 5000 HZ FEW100 14/06 Q1023 NOSIG=
Lucknow    
VILK 180430Z 20004KT 2000 HZ NSC 14/09 Q1021 NOSIG=
Jaipur     
VIJP 180430Z 00000KT 2500 HZ NSC 21/M03 Q1024 BECMG 3000 HZ=
Ahmedabad  
VAAH 180430Z 08008KT 4000 FU NSC 23/07 Q1022 NOSIG=
Udaipur    
VAUD 180400Z 00000KT 6000 FEW035 15/03 Q1024 NOSIG=
Mumbai     
VABB 180430Z 09007KT 3500 FU BKN100 27/13 Q1019 NOSIG=